sensor_id;sensor_type;location;lat;lon;timestamp;P1;durP1;ratioP1;P2;durP2;ratioP2
1366;SDS011;16877;48.810;9.282;2023-03-31T00:00:33;4.07;;;1.77;;
1366;SDS011;16877;48.810;9.282;2023-03-31T00:03:03;9.37;;;2.70;;
1366;SDS011;16877;48.810;9.282;2023-03-31T00:05:35;5.37;;;2.20;;
1366;SDS011;16877;48.810;9.282;2023-03-31T00:08:02;5.70;;;2.53;;
1366;SDS011;16877;48.810;9.282;2023-03-31T00:10:29;4.60;;;2.00;;
1366;SDS011;16877;48.810;9.282;2023-03-31T00:13:02;5.00;;;2.27;;
1366;SDS011;16877;48.810;9.282;2023-03-31T00:15:29;5.50;;;2.67;;
1366;SDS011;16877;48.810;9.282;2023-03-31T00:17:59;4.60;;;2.10;;
1366;SDS011;16877;48.810;9.282;2023-03-31T00:20:26;6.70;;;2.10;;
1366;SDS011;16877;48.810;9.282;2023-03-31T00:22:57;5.60;;;2.00;;
1366;SDS011;16877;48.810;9.282;2023-03-31T00:25:26;5.90;;;2.20;;
1366;SDS011;16877;48.810;9.282;2023-03-31T00:27:53;6.33;;;2.20;;
1366;SDS011;16877;48.810;9.282;2023-03-31T00:30:25;5.73;;;2.70;;
1366;SDS011;16877;48.810;9.282;2023-03-31T00:32:52;3.13;;;1.70;;
1366;SDS011;16877;48.810;9.282;2023-03-31T00:35:22;6.87;;;2.13;;
1366;SDS011;16877;48.810;9.282;2023-03-31T00:37:50;9.03;;;2.50;;
1366;SDS011;16877;48.810;9.282;2023-03-31T00:40:22;3.77;;;2.10;;
1366;SDS011;16877;48.810;9.282;2023-03-31T00:42:53;4.27;;;1.87;;
1366;SDS011;16877;48.810;9.282;2023-03-31T00:45:21;6.23;;;2.30;;
1366;SDS011;16877;48.810;9.282;2023-03-31T00:47:53;5.03;;;2.50;;
1366;SDS011;16877;48.810;9.282;2023-03-31T00:50:24;4.50;;;1.80;;
1366;SDS011;16877;48.810;9.282;2023-03-31T00:52:54;5.73;;;2.20;;
1366;SDS011;16877;48.810;9.282;2023-03-31T00:55:26;3.03;;;1.90;;
1366;SDS011;16877;48.810;9.282;2023-03-31T00:57:57;4.37;;;2.07;;
1366;SDS011;16877;48.810;9.282;2023-03-31T01:00:26;6.13;;;2.53;;
1366;SDS011;16877;48.810;9.282;2023-03-31T01:02:54;4.10;;;1.77;;
1366;SDS011;16877;48.810;9.282;2023-03-31T01:05:26;4.70;;;2.03;;
1366;SDS011;16877;48.810;9.282;2023-03-31T01:07:57;6.60;;;2.07;;
1366;SDS011;16877;48.810;9.282;2023-03-31T01:10:26;6.23;;;2.40;;
1366;SDS011;16877;48.810;9.282;2023-03-31T01:12:55;5.27;;;2.40;;
1366;SDS011;16877;48.810;9.282;2023-03-31T01:15:23;5.60;;;2.03;;
1366;SDS011;16877;48.810;9.282;2023-03-31T01:17:51;4.50;;;2.03;;
1366;SDS011;16877;48.810;9.282;2023-03-31T01:20:20;5.47;;;2.63;;
1366;SDS011;16877;48.810;9.282;2023-03-31T01:26:22;8.17;;;2.40;;
1366;SDS011;16877;48.810;9.282;2023-03-31T01:29:19;7.30;;;2.30;;
1366;SDS011;16877;48.810;9.282;2023-03-31T01:32:22;5.20;;;2.73;;
1366;SDS011;16877;48.810;9.282;2023-03-31T01:38:29;4.90;;;2.67;;
1366;SDS011;16877;48.810;9.282;2023-03-31T01:44:06;6.20;;;2.40;;
1366;SDS011;16877;48.810;9.282;2023-03-31T01:46:40;8.73;;;2.53;;
1366;SDS011;16877;48.810;9.282;2023-03-31T01:49:16;6.40;;;2.37;;
1366;SDS011;16877;48.810;9.282;2023-03-31T01:51:48;6.77;;;2.30;;
1366;SDS011;16877;48.810;9.282;2023-03-31T01:54:27;5.20;;;2.17;;
1366;SDS011;16877;48.810;9.282;2023-03-31T01:57:05;5.23;;;2.20;;
1366;SDS011;16877;48.810;9.282;2023-03-31T01:59:42;5.43;;;2.10;;
1366;SDS011;16877;48.810;9.282;2023-03-31T02:02:16;4.53;;;2.30;;
1366;SDS011;16877;48.810;9.282;2023-03-31T02:04:47;6.97;;;2.37;;
1366;SDS011;16877;48.810;9.282;2023-03-31T02:07:19;5.27;;;2.90;;
1366;SDS011;16877;48.810;9.282;2023-03-31T02:09:57;3.13;;;2.03;;
1366;SDS011;16877;48.810;9.282;2023-03-31T02:12:30;4.57;;;1.90;;
1366;SDS011;16877;48.810;9.282;2023-03-31T02:14:59;4.30;;;2.33;;
1366;SDS011;16877;48.810;9.282;2023-03-31T02:17:30;7.27;;;2.90;;
1366;SDS011;16877;48.810;9.282;2023-03-31T02:19:58;5.77;;;2.20;;
1366;SDS011;16877;48.810;9.282;2023-03-31T02:22:30;4.10;;;1.90;;
1366;SDS011;16877;48.810;9.282;2023-03-31T02:25:01;6.10;;;2.27;;
1366;SDS011;16877;48.810;9.282;2023-03-31T02:27:34;5.67;;;2.40;;
1366;SDS011;16877;48.810;9.282;2023-03-31T02:30:05;4.90;;;2.10;;
1366;SDS011;16877;48.810;9.282;2023-03-31T02:32:34;4.07;;;1.63;;
1366;SDS011;16877;48.810;9.282;2023-03-31T02:35:04;5.77;;;2.23;;
1366;SDS011;16877;48.810;9.282;2023-03-31T02:37:33;5.60;;;2.60;;
1366;SDS011;16877;48.810;9.282;2023-03-31T02:40:10;4.77;;;2.33;;
1366;SDS011;16877;48.810;9.282;2023-03-31T02:42:42;5.50;;;2.03;;
1366;SDS011;16877;48.810;9.282;2023-03-31T02:48:06;5.27;;;2.00;;
1366;SDS011;16877;48.810;9.282;2023-03-31T02:50:38;3.80;;;2.10;;
1366;SDS011;16877;48.810;9.282;2023-03-31T02:53:28;4.90;;;2.00;;
1366;SDS011;16877;48.810;9.282;2023-03-31T02:56:12;5.87;;;2.83;;
1366;SDS011;16877;48.810;9.282;2023-03-31T02:59:03;5.13;;;2.67;;
1366;SDS011;16877;48.810;9.282;2023-03-31T03:01:45;5.47;;;2.70;;
1366;SDS011;16877;48.810;9.282;2023-03-31T03:04:26;3.60;;;1.93;;
1366;SDS011;16877;48.810;9.282;2023-03-31T03:07:06;3.90;;;2.37;;
1366;SDS011;16877;48.810;9.282;2023-03-31T03:09:42;3.93;;;2.40;;
1366;SDS011;16877;48.810;9.282;2023-03-31T03:12:20;5.67;;;2.07;;
1366;SDS011;16877;48.810;9.282;2023-03-31T03:14:54;4.17;;;2.50;;
1366;SDS011;16877;48.810;9.282;2023-03-31T03:17:31;4.53;;;2.33;;
1366;SDS011;16877;48.810;9.282;2023-03-31T03:20:02;6.53;;;2.60;;
1366;SDS011;16877;48.810;9.282;2023-03-31T03:22:33;5.60;;;2.97;;
1366;SDS011;16877;48.810;9.282;2023-03-31T03:25:01;3.73;;;2.50;;
1366;SDS011;16877;48.810;9.282;2023-03-31T03:27:28;5.27;;;2.90;;
1366;SDS011;16877;48.810;9.282;2023-03-31T03:29:57;4.83;;;3.03;;
1366;SDS011;16877;48.810;9.282;2023-03-31T03:32:24;6.20;;;3.10;;
1366;SDS011;16877;48.810;9.282;2023-03-31T03:34:51;5.80;;;2.70;;
1366;SDS011;16877;48.810;9.282;2023-03-31T03:37:18;3.90;;;2.37;;
1366;SDS011;16877;48.810;9.282;2023-03-31T03:39:46;3.30;;;2.13;;
1366;SDS011;16877;48.810;9.282;2023-03-31T03:42:14;4.40;;;2.20;;
1366;SDS011;16877;48.810;9.282;2023-03-31T03:44:41;4.90;;;2.57;;
1366;SDS011;16877;48.810;9.282;2023-03-31T03:47:10;6.33;;;3.00;;
1366;SDS011;16877;48.810;9.282;2023-03-31T03:49:37;4.53;;;2.60;;
1366;SDS011;16877;48.810;9.282;2023-03-31T03:52:04;3.70;;;2.20;;
1366;SDS011;16877;48.810;9.282;2023-03-31T03:54:32;6.90;;;2.63;;
1366;SDS011;16877;48.810;9.282;2023-03-31T03:57:00;6.67;;;2.60;;
1366;SDS011;16877;48.810;9.282;2023-03-31T03:59:29;4.83;;;2.17;;
1366;SDS011;16877;48.810;9.282;2023-03-31T04:01:57;5.63;;;2.87;;
1366;SDS011;16877;48.810;9.282;2023-03-31T04:04:26;3.73;;;2.10;;
1366;SDS011;16877;48.810;9.282;2023-03-31T04:06:53;4.60;;;2.60;;
1366;SDS011;16877;48.810;9.282;2023-03-31T04:09:21;4.77;;;2.83;;
1366;SDS011;16877;48.810;9.282;2023-03-31T04:11:48;4.47;;;2.60;;
1366;SDS011;16877;48.810;9.282;2023-03-31T04:14:16;7.97;;;3.00;;
1366;SDS011;16877;48.810;9.282;2023-03-31T04:16:43;4.80;;;2.50;;
1366;SDS011;16877;48.810;9.282;2023-03-31T04:19:12;5.27;;;2.23;;
1366;SDS011;16877;48.810;9.282;2023-03-31T04:21:43;5.80;;;2.80;;
1366;SDS011;16877;48.810;9.282;2023-03-31T04:24:11;5.40;;;2.57;;
1366;SDS011;16877;48.810;9.282;2023-03-31T04:26:45;6.30;;;2.63;;
1366;SDS011;16877;48.810;9.282;2023-03-31T04:29:15;5.33;;;2.87;;
1366;SDS011;16877;48.810;9.282;2023-03-31T04:31:44;4.73;;;2.80;;
1366;SDS011;16877;48.810;9.282;2023-03-31T04:34:13;8.33;;;3.13;;
1366;SDS011;16877;48.810;9.282;2023-03-31T04:36:43;6.43;;;3.57;;
1366;SDS011;16877;48.810;9.282;2023-03-31T04:39:11;7.63;;;3.50;;
1366;SDS011;16877;48.810;9.282;2023-03-31T04:41:40;4.10;;;2.57;;
1366;SDS011;16877;48.810;9.282;2023-03-31T04:44:08;4.73;;;2.93;;
1366;SDS011;16877;48.810;9.282;2023-03-31T04:46:35;6.27;;;3.17;;
1366;SDS011;16877;48.810;9.282;2023-03-31T04:49:03;7.70;;;3.40;;
1366;SDS011;16877;48.810;9.282;2023-03-31T04:51:30;4.47;;;2.67;;
1366;SDS011;16877;48.810;9.282;2023-03-31T04:53:59;6.33;;;3.60;;
1366;SDS011;16877;48.810;9.282;2023-03-31T04:56:27;6.23;;;3.03;;
1366;SDS011;16877;48.810;9.282;2023-03-31T04:58:54;6.60;;;3.40;;
1366;SDS011;16877;48.810;9.282;2023-03-31T05:01:22;7.37;;;2.90;;
1366;SDS011;16877;48.810;9.282;2023-03-31T05:03:49;6.33;;;2.63;;
1366;SDS011;16877;48.810;9.282;2023-03-31T05:06:17;5.57;;;2.90;;
1366;SDS011;16877;48.810;9.282;2023-03-31T05:08:45;7.63;;;3.47;;
1366;SDS011;16877;48.810;9.282;2023-03-31T05:11:14;6.10;;;3.27;;
1366;SDS011;16877;48.810;9.282;2023-03-31T05:13:43;4.70;;;3.00;;
1366;SDS011;16877;48.810;9.282;2023-03-31T05:16:10;7.67;;;3.40;;
1366;SDS011;16877;48.810;9.282;2023-03-31T05:18:52;5.03;;;3.00;;
1366;SDS011;16877;48.810;9.282;2023-03-31T05:21:24;7.10;;;2.93;;
1366;SDS011;16877;48.810;9.282;2023-03-31T05:24:03;4.50;;;3.20;;
1366;SDS011;16877;48.810;9.282;2023-03-31T05:26:33;6.53;;;3.40;;
1366;SDS011;16877;48.810;9.282;2023-03-31T05:29:05;7.43;;;3.73;;
1366;SDS011;16877;48.810;9.282;2023-03-31T05:31:48;8.13;;;4.40;;
1366;SDS011;16877;48.810;9.282;2023-03-31T05:34:23;4.83;;;3.23;;
1366;SDS011;16877;48.810;9.282;2023-03-31T05:36:57;6.90;;;3.90;;
1366;SDS011;16877;48.810;9.282;2023-03-31T05:39:51;5.60;;;3.10;;
1366;SDS011;16877;48.810;9.282;2023-03-31T05:42:34;5.47;;;3.47;;
1366;SDS011;16877;48.810;9.282;2023-03-31T05:45:01;6.43;;;3.90;;
1366;SDS011;16877;48.810;9.282;2023-03-31T05:47:32;5.67;;;3.63;;
1366;SDS011;16877;48.810;9.282;2023-03-31T05:50:04;6.30;;;4.30;;
1366;SDS011;16877;48.810;9.282;2023-03-31T05:52:39;6.70;;;3.17;;
1366;SDS011;16877;48.810;9.282;2023-03-31T05:55:39;5.97;;;3.93;;
1366;SDS011;16877;48.810;9.282;2023-03-31T05:58:11;4.43;;;3.37;;
1366;SDS011;16877;48.810;9.282;2023-03-31T06:00:59;5.70;;;3.77;;
1366;SDS011;16877;48.810;9.282;2023-03-31T06:03:31;7.00;;;3.93;;
1366;SDS011;16877;48.810;9.282;2023-03-31T06:06:01;6.90;;;3.90;;
1366;SDS011;16877;48.810;9.282;2023-03-31T06:08:32;6.03;;;3.97;;
1366;SDS011;16877;48.810;9.282;2023-03-31T06:11:08;6.40;;;3.70;;
1366;SDS011;16877;48.810;9.282;2023-03-31T06:13:39;4.43;;;3.00;;
1366;SDS011;16877;48.810;9.282;2023-03-31T06:16:15;6.77;;;3.90;;
1366;SDS011;16877;48.810;9.282;2023-03-31T06:18:48;7.03;;;3.73;;
1366;SDS011;16877;48.810;9.282;2023-03-31T06:21:18;8.00;;;4.30;;
1366;SDS011;16877;48.810;9.282;2023-03-31T06:24:11;5.53;;;3.67;;
1366;SDS011;16877;48.810;9.282;2023-03-31T06:26:54;7.23;;;3.70;;
1366;SDS011;16877;48.810;9.282;2023-03-31T06:29:34;9.77;;;4.17;;
1366;SDS011;16877;48.810;9.282;2023-03-31T06:32:04;6.40;;;4.10;;
1366;SDS011;16877;48.810;9.282;2023-03-31T06:34:35;6.70;;;3.90;;
1366;SDS011;16877;48.810;9.282;2023-03-31T06:37:11;6.53;;;3.83;;
1366;SDS011;16877;48.810;9.282;2023-03-31T06:39:49;5.77;;;3.60;;
1366;SDS011;16877;48.810;9.282;2023-03-31T06:45:12;5.50;;;3.50;;
1366;SDS011;16877;48.810;9.282;2023-03-31T06:47:39;5.70;;;4.13;;
1366;SDS011;16877;48.810;9.282;2023-03-31T06:50:21;5.77;;;3.90;;
1366;SDS011;16877;48.810;9.282;2023-03-31T06:52:49;6.10;;;4.23;;
1366;SDS011;16877;48.810;9.282;2023-03-31T06:55:19;8.40;;;4.17;;
1366;SDS011;16877;48.810;9.282;2023-03-31T06:57:48;5.63;;;3.50;;
1366;SDS011;16877;48.810;9.282;2023-03-31T07:00:27;7.57;;;3.97;;
1366;SDS011;16877;48.810;9.282;2023-03-31T07:02:54;6.43;;;4.30;;
1366;SDS011;16877;48.810;9.282;2023-03-31T07:05:30;7.00;;;4.67;;
1366;SDS011;16877;48.810;9.282;2023-03-31T07:08:08;6.40;;;4.40;;
1366;SDS011;16877;48.810;9.282;2023-03-31T07:10:44;8.27;;;4.80;;
1366;SDS011;16877;48.810;9.282;2023-03-31T07:13:14;8.63;;;4.60;;
1366;SDS011;16877;48.810;9.282;2023-03-31T07:15:45;4.87;;;4.30;;
1366;SDS011;16877;48.810;9.282;2023-03-31T07:18:13;6.40;;;3.80;;
1366;SDS011;16877;48.810;9.282;2023-03-31T07:20:41;6.50;;;4.70;;
1366;SDS011;16877;48.810;9.282;2023-03-31T07:23:09;7.97;;;4.00;;
1366;SDS011;16877;48.810;9.282;2023-03-31T07:26:04;4.90;;;3.53;;
1366;SDS011;16877;48.810;9.282;2023-03-31T07:28:37;6.10;;;4.50;;
1366;SDS011;16877;48.810;9.282;2023-03-31T07:31:13;6.43;;;4.13;;
1366;SDS011;16877;48.810;9.282;2023-03-31T07:33:42;6.57;;;3.90;;
1366;SDS011;16877;48.810;9.282;2023-03-31T07:36:12;5.47;;;3.70;;
1366;SDS011;16877;48.810;9.282;2023-03-31T07:38:45;5.00;;;3.53;;
1366;SDS011;16877;48.810;9.282;2023-03-31T07:41:19;6.90;;;3.70;;
1366;SDS011;16877;48.810;9.282;2023-03-31T07:43:59;5.80;;;3.10;;
1366;SDS011;16877;48.810;9.282;2023-03-31T07:46:54;4.90;;;3.13;;
1366;SDS011;16877;48.810;9.282;2023-03-31T07:49:22;5.73;;;3.03;;
1366;SDS011;16877;48.810;9.282;2023-03-31T07:51:50;5.03;;;2.60;;
1366;SDS011;16877;48.810;9.282;2023-03-31T07:54:17;4.53;;;2.67;;
1366;SDS011;16877;48.810;9.282;2023-03-31T07:56:45;4.20;;;2.40;;
1366;SDS011;16877;48.810;9.282;2023-03-31T07:59:13;4.00;;;2.20;;
1366;SDS011;16877;48.810;9.282;2023-03-31T08:01:41;2.80;;;2.20;;
1366;SDS011;16877;48.810;9.282;2023-03-31T08:04:09;4.40;;;2.00;;
1366;SDS011;16877;48.810;9.282;2023-03-31T08:06:37;5.13;;;2.43;;
1366;SDS011;16877;48.810;9.282;2023-03-31T08:09:05;3.10;;;1.87;;
1366;SDS011;16877;48.810;9.282;2023-03-31T08:11:32;2.90;;;1.80;;
1366;SDS011;16877;48.810;9.282;2023-03-31T08:14:00;3.60;;;1.77;;
1366;SDS011;16877;48.810;9.282;2023-03-31T08:16:28;3.57;;;1.80;;
1366;SDS011;16877;48.810;9.282;2023-03-31T08:18:55;2.83;;;1.43;;
1366;SDS011;16877;48.810;9.282;2023-03-31T08:21:24;2.67;;;1.50;;
1366;SDS011;16877;48.810;9.282;2023-03-31T08:23:53;3.20;;;1.40;;
1366;SDS011;16877;48.810;9.282;2023-03-31T08:26:20;2.30;;;1.20;;
1366;SDS011;16877;48.810;9.282;2023-03-31T08:28:48;2.57;;;1.07;;
1366;SDS011;16877;48.810;9.282;2023-03-31T08:31:17;3.37;;;1.30;;
1366;SDS011;16877;48.810;9.282;2023-03-31T08:33:45;2.87;;;1.47;;
1366;SDS011;16877;48.810;9.282;2023-03-31T08:36:13;2.30;;;1.23;;
1366;SDS011;16877;48.810;9.282;2023-03-31T08:38:42;2.93;;;1.47;;
1366;SDS011;16877;48.810;9.282;2023-03-31T08:41:17;2.40;;;1.30;;
1366;SDS011;16877;48.810;9.282;2023-03-31T08:43:57;3.37;;;1.50;;
1366;SDS011;16877;48.810;9.282;2023-03-31T08:46:28;3.00;;;1.50;;
1366;SDS011;16877;48.810;9.282;2023-03-31T08:49:13;3.13;;;1.40;;
1366;SDS011;16877;48.810;9.282;2023-03-31T08:51:45;4.20;;;1.50;;
1366;SDS011;16877;48.810;9.282;2023-03-31T08:54:18;3.60;;;1.80;;
1366;SDS011;16877;48.810;9.282;2023-03-31T08:56:51;3.40;;;1.53;;
1366;SDS011;16877;48.810;9.282;2023-03-31T08:59:20;3.90;;;1.80;;
1366;SDS011;16877;48.810;9.282;2023-03-31T09:01:59;2.70;;;1.30;;
1366;SDS011;16877;48.810;9.282;2023-03-31T09:04:42;3.40;;;1.77;;
1366;SDS011;16877;48.810;9.282;2023-03-31T09:07:19;3.30;;;1.63;;
1366;SDS011;16877;48.810;9.282;2023-03-31T09:09:54;5.60;;;2.20;;
1366;SDS011;16877;48.810;9.282;2023-03-31T09:12:32;3.77;;;1.90;;
1366;SDS011;16877;48.810;9.282;2023-03-31T09:15:07;3.33;;;1.30;;
1366;SDS011;16877;48.810;9.282;2023-03-31T09:17:38;4.60;;;1.80;;
1366;SDS011;16877;48.810;9.282;2023-03-31T09:20:12;4.30;;;1.60;;
1366;SDS011;16877;48.810;9.282;2023-03-31T09:22:42;4.60;;;1.87;;
1366;SDS011;16877;48.810;9.282;2023-03-31T09:25:14;2.73;;;1.43;;
1366;SDS011;16877;48.810;9.282;2023-03-31T09:27:46;2.70;;;1.20;;
1366;SDS011;16877;48.810;9.282;2023-03-31T09:30:18;3.00;;;1.53;;
1366;SDS011;16877;48.810;9.282;2023-03-31T09:32:51;4.60;;;2.07;;
1366;SDS011;16877;48.810;9.282;2023-03-31T09:35:24;3.83;;;1.50;;
1366;SDS011;16877;48.810;9.282;2023-03-31T09:37:57;5.23;;;1.70;;
1366;SDS011;16877;48.810;9.282;2023-03-31T09:40:28;3.90;;;1.60;;
1366;SDS011;16877;48.810;9.282;2023-03-31T09:43:07;3.50;;;1.40;;
1366;SDS011;16877;48.810;9.282;2023-03-31T09:45:41;3.53;;;1.30;;
1366;SDS011;16877;48.810;9.282;2023-03-31T09:48:25;5.90;;;1.87;;
1366;SDS011;16877;48.810;9.282;2023-03-31T09:50:57;3.83;;;1.53;;
1366;SDS011;16877;48.810;9.282;2023-03-31T09:53:30;4.27;;;1.53;;
1366;SDS011;16877;48.810;9.282;2023-03-31T09:56:03;4.43;;;1.73;;
1366;SDS011;16877;48.810;9.282;2023-03-31T09:58:39;3.60;;;1.40;;
1366;SDS011;16877;48.810;9.282;2023-03-31T10:01:23;3.83;;;1.40;;
1366;SDS011;16877;48.810;9.282;2023-03-31T10:03:51;4.77;;;1.50;;
1366;SDS011;16877;48.810;9.282;2023-03-31T10:06:37;4.87;;;1.80;;
1366;SDS011;16877;48.810;9.282;2023-03-31T10:09:15;6.50;;;2.73;;
1366;SDS011;16877;48.810;9.282;2023-03-31T10:11:57;4.77;;;2.03;;
1366;SDS011;16877;48.810;9.282;2023-03-31T10:14:40;4.50;;;1.47;;
1366;SDS011;16877;48.810;9.282;2023-03-31T10:17:12;7.20;;;2.20;;
1366;SDS011;16877;48.810;9.282;2023-03-31T10:19:46;5.87;;;1.90;;
1366;SDS011;16877;48.810;9.282;2023-03-31T10:22:14;6.40;;;2.03;;
1366;SDS011;16877;48.810;9.282;2023-03-31T10:24:43;2.83;;;1.13;;
1366;SDS011;16877;48.810;9.282;2023-03-31T10:27:16;3.80;;;1.57;;
1366;SDS011;16877;48.810;9.282;2023-03-31T10:29:51;5.00;;;2.00;;
1366;SDS011;16877;48.810;9.282;2023-03-31T10:32:39;6.33;;;2.37;;
1366;SDS011;16877;48.810;9.282;2023-03-31T10:35:29;4.03;;;1.90;;
1366;SDS011;16877;48.810;9.282;2023-03-31T10:38:33;5.83;;;1.70;;
1366;SDS011;16877;48.810;9.282;2023-03-31T10:41:05;5.23;;;2.13;;
1366;SDS011;16877;48.810;9.282;2023-03-31T10:43:36;7.40;;;1.50;;
1366;SDS011;16877;48.810;9.282;2023-03-31T10:46:07;5.13;;;2.30;;
1366;SDS011;16877;48.810;9.282;2023-03-31T10:48:36;5.03;;;1.83;;
1366;SDS011;16877;48.810;9.282;2023-03-31T10:51:09;4.73;;;1.80;;
1366;SDS011;16877;48.810;9.282;2023-03-31T10:53:59;5.63;;;1.93;;
1366;SDS011;16877;48.810;9.282;2023-03-31T10:56:35;4.00;;;1.70;;
1366;SDS011;16877;48.810;9.282;2023-03-31T10:59:08;4.83;;;2.30;;
1366;SDS011;16877;48.810;9.282;2023-03-31T11:01:55;4.90;;;1.93;;
1366;SDS011;16877;48.810;9.282;2023-03-31T11:04:52;4.23;;;1.53;;
1366;SDS011;16877;48.810;9.282;2023-03-31T11:07:56;4.10;;;1.47;;
1366;SDS011;16877;48.810;9.282;2023-03-31T11:10:39;3.87;;;1.53;;
1366;SDS011;16877;48.810;9.282;2023-03-31T11:13:16;5.10;;;1.87;;
1366;SDS011;16877;48.810;9.282;2023-03-31T11:15:54;4.40;;;1.80;;
1366;SDS011;16877;48.810;9.282;2023-03-31T11:21:42;4.17;;;1.60;;
1366;SDS011;16877;48.810;9.282;2023-03-31T11:24:30;5.47;;;2.10;;
1366;SDS011;16877;48.810;9.282;2023-03-31T11:27:15;4.50;;;1.70;;
1366;SDS011;16877;48.810;9.282;2023-03-31T11:29:56;6.90;;;1.80;;
1366;SDS011;16877;48.810;9.282;2023-03-31T11:32:39;4.57;;;1.10;;
1366;SDS011;16877;48.810;9.282;2023-03-31T11:35:18;4.60;;;0.90;;
1366;SDS011;16877;48.810;9.282;2023-03-31T11:38:04;3.70;;;0.93;;
1366;SDS011;16877;48.810;9.282;2023-03-31T11:40:47;2.33;;;0.97;;
1366;SDS011;16877;48.810;9.282;2023-03-31T11:43:25;2.43;;;0.70;;
1366;SDS011;16877;48.810;9.282;2023-03-31T11:45:58;3.20;;;1.20;;
1366;SDS011;16877;48.810;9.282;2023-03-31T11:48:31;5.27;;;1.00;;
1366;SDS011;16877;48.810;9.282;2023-03-31T11:51:06;2.20;;;1.00;;
1366;SDS011;16877;48.810;9.282;2023-03-31T11:53:40;2.07;;;0.73;;
1366;SDS011;16877;48.810;9.282;2023-03-31T11:56:09;2.00;;;0.77;;
1366;SDS011;16877;48.810;9.282;2023-03-31T11:58:43;2.00;;;0.60;;
1366;SDS011;16877;48.810;9.282;2023-03-31T12:01:17;3.57;;;0.90;;
1366;SDS011;16877;48.810;9.282;2023-03-31T12:03:51;1.90;;;0.80;;
1366;SDS011;16877;48.810;9.282;2023-03-31T12:06:26;1.90;;;0.70;;
1366;SDS011;16877;48.810;9.282;2023-03-31T12:09:12;2.10;;;0.87;;
1366;SDS011;16877;48.810;9.282;2023-03-31T12:11:49;2.00;;;0.83;;
1366;SDS011;16877;48.810;9.282;2023-03-31T12:14:35;2.03;;;0.90;;
1366;SDS011;16877;48.810;9.282;2023-03-31T12:17:09;2.70;;;0.97;;
1366;SDS011;16877;48.810;9.282;2023-03-31T12:19:42;3.10;;;1.00;;
1366;SDS011;16877;48.810;9.282;2023-03-31T12:22:17;1.87;;;0.70;;
1366;SDS011;16877;48.810;9.282;2023-03-31T12:25:03;2.10;;;0.80;;
1366;SDS011;16877;48.810;9.282;2023-03-31T12:27:31;2.60;;;0.70;;
1366;SDS011;16877;48.810;9.282;2023-03-31T12:30:11;2.27;;;0.67;;
1366;SDS011;16877;48.810;9.282;2023-03-31T12:32:44;2.70;;;0.87;;
1366;SDS011;16877;48.810;9.282;2023-03-31T12:35:18;1.70;;;0.70;;
1366;SDS011;16877;48.810;9.282;2023-03-31T12:38:09;2.87;;;1.10;;
1366;SDS011;16877;48.810;9.282;2023-03-31T12:40:57;2.77;;;1.40;;
1366;SDS011;16877;48.810;9.282;2023-03-31T12:43:50;3.20;;;1.10;;
1366;SDS011;16877;48.810;9.282;2023-03-31T12:49:46;2.10;;;0.80;;
1366;SDS011;16877;48.810;9.282;2023-03-31T12:52:31;2.20;;;0.90;;
1366;SDS011;16877;48.810;9.282;2023-03-31T13:01:06;2.10;;;0.90;;
1366;SDS011;16877;48.810;9.282;2023-03-31T13:03:37;2.87;;;1.00;;
1366;SDS011;16877;48.810;9.282;2023-03-31T13:09:40;3.27;;;1.07;;
1366;SDS011;16877;48.810;9.282;2023-03-31T13:12:14;3.57;;;1.23;;
1366;SDS011;16877;48.810;9.282;2023-03-31T13:14:47;2.80;;;1.17;;
1366;SDS011;16877;48.810;9.282;2023-03-31T13:17:29;4.47;;;1.13;;
1366;SDS011;16877;48.810;9.282;2023-03-31T13:20:26;2.70;;;0.90;;
1366;SDS011;16877;48.810;9.282;2023-03-31T13:23:13;5.10;;;1.70;;
1366;SDS011;16877;48.810;9.282;2023-03-31T13:25:49;2.90;;;1.10;;
1366;SDS011;16877;48.810;9.282;2023-03-31T13:28:26;2.50;;;0.80;;
1366;SDS011;16877;48.810;9.282;2023-03-31T13:31:08;2.10;;;0.67;;
1366;SDS011;16877;48.810;9.282;2023-03-31T13:34:11;2.00;;;0.77;;
1366;SDS011;16877;48.810;9.282;2023-03-31T13:36:47;3.10;;;0.90;;
1366;SDS011;16877;48.810;9.282;2023-03-31T13:39:34;2.87;;;1.10;;
1366;SDS011;16877;48.810;9.282;2023-03-31T13:42:26;2.33;;;0.80;;
1366;SDS011;16877;48.810;9.282;2023-03-31T13:45:20;2.03;;;0.60;;
1366;SDS011;16877;48.810;9.282;2023-03-31T13:51:25;4.23;;;0.87;;
1366;SDS011;16877;48.810;9.282;2023-03-31T13:54:13;1.80;;;0.70;;
1366;SDS011;16877;48.810;9.282;2023-03-31T14:00:54;1.70;;;0.50;;
1366;SDS011;16877;48.810;9.282;2023-03-31T14:03:57;2.37;;;0.50;;
1366;SDS011;16877;48.810;9.282;2023-03-31T14:06:51;2.73;;;0.80;;
1366;SDS011;16877;48.810;9.282;2023-03-31T14:09:22;1.70;;;0.60;;
1366;SDS011;16877;48.810;9.282;2023-03-31T14:11:53;2.23;;;0.57;;
1366;SDS011;16877;48.810;9.282;2023-03-31T14:14:23;2.43;;;0.70;;
1366;SDS011;16877;48.810;9.282;2023-03-31T14:16:57;1.70;;;0.70;;
1366;SDS011;16877;48.810;9.282;2023-03-31T14:19:45;2.10;;;0.87;;
1366;SDS011;16877;48.810;9.282;2023-03-31T14:22:47;1.90;;;0.60;;
1366;SDS011;16877;48.810;9.282;2023-03-31T14:25:25;2.80;;;0.80;;
1366;SDS011;16877;48.810;9.282;2023-03-31T14:28:13;4.17;;;0.70;;
1366;SDS011;16877;48.810;9.282;2023-03-31T14:31:06;2.40;;;0.90;;
1366;SDS011;16877;48.810;9.282;2023-03-31T14:33:59;2.60;;;0.73;;
1366;SDS011;16877;48.810;9.282;2023-03-31T14:36:39;2.13;;;0.80;;
1366;SDS011;16877;48.810;9.282;2023-03-31T14:39:19;2.57;;;0.83;;
1366;SDS011;16877;48.810;9.282;2023-03-31T14:42:03;2.63;;;0.80;;
1366;SDS011;16877;48.810;9.282;2023-03-31T14:44:32;2.40;;;0.90;;
1366;SDS011;16877;48.810;9.282;2023-03-31T14:47:01;2.00;;;0.70;;
1366;SDS011;16877;48.810;9.282;2023-03-31T14:49:48;2.77;;;0.90;;
1366;SDS011;16877;48.810;9.282;2023-03-31T14:52:36;3.83;;;0.93;;
1366;SDS011;16877;48.810;9.282;2023-03-31T14:55:12;3.40;;;1.20;;
1366;SDS011;16877;48.810;9.282;2023-03-31T14:57:43;2.30;;;0.90;;
1366;SDS011;16877;48.810;9.282;2023-03-31T15:00:37;1.90;;;0.70;;
1366;SDS011;16877;48.810;9.282;2023-03-31T15:03:11;3.13;;;1.03;;
1366;SDS011;16877;48.810;9.282;2023-03-31T15:05:52;2.40;;;0.87;;
1366;SDS011;16877;48.810;9.282;2023-03-31T15:08:29;2.63;;;0.83;;
1366;SDS011;16877;48.810;9.282;2023-03-31T15:11:09;2.93;;;1.07;;
1366;SDS011;16877;48.810;9.282;2023-03-31T15:13:40;2.47;;;1.00;;
1366;SDS011;16877;48.810;9.282;2023-03-31T15:16:20;2.70;;;1.03;;
1366;SDS011;16877;48.810;9.282;2023-03-31T15:19:18;2.50;;;1.10;;
1366;SDS011;16877;48.810;9.282;2023-03-31T15:22:04;2.87;;;1.00;;
1366;SDS011;16877;48.810;9.282;2023-03-31T15:24:42;4.40;;;1.17;;
1366;SDS011;16877;48.810;9.282;2023-03-31T15:27:25;2.47;;;0.97;;
1366;SDS011;16877;48.810;9.282;2023-03-31T15:30:04;3.50;;;1.40;;
1366;SDS011;16877;48.810;9.282;2023-03-31T15:32:38;2.40;;;0.97;;
1366;SDS011;16877;48.810;9.282;2023-03-31T15:35:33;2.20;;;0.83;;
1366;SDS011;16877;48.810;9.282;2023-03-31T15:38:04;2.50;;;1.10;;
1366;SDS011;16877;48.810;9.282;2023-03-31T15:40:35;2.60;;;1.23;;
1366;SDS011;16877;48.810;9.282;2023-03-31T15:43:07;2.80;;;1.20;;
1366;SDS011;16877;48.810;9.282;2023-03-31T15:45:49;2.60;;;1.30;;
1366;SDS011;16877;48.810;9.282;2023-03-31T15:48:19;2.57;;;0.97;;
1366;SDS011;16877;48.810;9.282;2023-03-31T15:51:04;3.90;;;1.50;;
1366;SDS011;16877;48.810;9.282;2023-03-31T15:53:48;2.70;;;1.10;;
1366;SDS011;16877;48.810;9.282;2023-03-31T15:56:23;3.87;;;1.13;;
1366;SDS011;16877;48.810;9.282;2023-03-31T15:58:56;3.03;;;1.00;;
1366;SDS011;16877;48.810;9.282;2023-03-31T16:01:32;2.53;;;0.90;;
1366;SDS011;16877;48.810;9.282;2023-03-31T16:04:05;10.60;;;4.17;;
1366;SDS011;16877;48.810;9.282;2023-03-31T16:06:37;8.00;;;4.60;;
1366;SDS011;16877;48.810;9.282;2023-03-31T16:09:10;9.30;;;3.83;;
1366;SDS011;16877;48.810;9.282;2023-03-31T16:11:45;5.97;;;3.10;;
1366;SDS011;16877;48.810;9.282;2023-03-31T16:14:16;3.63;;;1.60;;
1366;SDS011;16877;48.810;9.282;2023-03-31T16:16:51;4.37;;;1.60;;
1366;SDS011;16877;48.810;9.282;2023-03-31T16:19:28;2.87;;;1.30;;
1366;SDS011;16877;48.810;9.282;2023-03-31T16:22:04;3.00;;;0.90;;
1366;SDS011;16877;48.810;9.282;2023-03-31T16:24:34;2.97;;;0.87;;
1366;SDS011;16877;48.810;9.282;2023-03-31T16:27:02;2.60;;;1.17;;